createdAt,value
2023-03-16T11:18:19.006Z,99.99
2023-03-16T11:19:18.990Z,99.99
2023-03-16T11:20:19.048Z,99.99
2023-03-16T11:21:18.920Z,99.99
2023-03-16T11:22:18.928Z,99.99
2023-03-16T11:23:18.884Z,99.99
2023-03-16T11:24:18.874Z,99.99
2023-03-16T11:25:18.866Z,99.99
2023-03-16T11:26:18.836Z,99.99
2023-03-16T11:27:18.828Z,99.99
2023-03-16T11:28:18.813Z,99.99
2023-03-16T11:29:18.772Z,99.99
2023-03-16T11:30:18.853Z,99.99
2023-03-16T11:31:18.809Z,99.99
2023-03-16T11:32:18.708Z,99.99
2023-03-16T11:33:18.722Z,99.99
2023-03-16T11:34:18.676Z,99.99
2023-03-16T11:35:18.690Z,99.99
2023-03-16T11:36:18.697Z,99.99
2023-03-16T11:37:18.635Z,99.99
2023-03-16T11:38:18.635Z,99.99
2023-03-16T11:39:18.590Z,99.99
2023-03-16T11:40:18.564Z,99.99
2023-03-16T11:41:18.625Z,99.99
2023-03-16T11:42:18.547Z,99.99
2023-03-16T11:43:18.567Z,99.99
2023-03-16T12:25:57.092Z,99.99
2023-03-16T12:26:57.071Z,98.57
2023-03-16T12:27:57.074Z,97.23
2023-03-16T12:28:57.015Z,96.70
2023-03-16T12:29:57.019Z,95.51
2023-03-16T12:30:56.980Z,96.32
2023-03-16T12:31:56.969Z,96.37
2023-03-16T12:32:57.004Z,95.22
2023-03-16T12:33:56.939Z,95.03
2023-03-16T12:34:56.936Z,95.17
2023-03-16T12:35:56.950Z,95.31
2023-03-16T12:36:56.877Z,95.79
2023-03-16T12:37:56.865Z,95.75
2023-03-16T12:38:56.841Z,96.89
2023-03-16T12:39:56.853Z,96.80
2023-03-16T12:40:56.839Z,96.99
2023-03-16T12:41:56.810Z,96.03
2023-03-16T12:42:56.774Z,96.89
2023-03-16T12:43:56.828Z,96.13
2023-03-16T12:44:56.741Z,95.70
2023-03-16T12:45:56.812Z,97.23
2023-03-16T12:46:56.725Z,96.27
2023-03-16T12:47:56.712Z,95.79
2023-03-16T12:48:56.672Z,95.12
2023-03-16T12:49:56.663Z,95.03
2023-03-16T12:50:56.659Z,96.70
2023-03-16T12:51:56.630Z,97.75
2023-03-16T12:52:56.630Z,97.23
2023-03-16T13:00:12.252Z,99.99
2023-03-16T13:01:12.216Z,99.99
2023-03-16T13:02:12.188Z,99.99
2023-03-16T13:03:12.172Z,99.99
2023-03-16T13:04:12.157Z,99.99
2023-03-16T13:05:12.112Z,99.99
2023-03-16T13:06:12.111Z,99.99
2023-03-16T13:07:12.119Z,99.99
2023-03-16T13:08:12.071Z,99.99
2023-03-16T13:09:12.046Z,99.99
2023-03-16T13:10:12.074Z,99.99
2023-03-16T13:11:12.042Z,99.99
2023-03-16T13:12:14.474Z,99.99
2023-03-16T13:13:12.003Z,99.99
2023-03-16T13:14:11.987Z,99.99
2023-03-16T13:15:11.946Z,99.99
2023-03-16T13:16:11.976Z,99.99
2023-03-16T13:17:11.958Z,99.99
2023-03-16T13:18:11.924Z,99.99
2023-03-16T13:19:11.896Z,99.99
2023-03-16T13:20:15.730Z,99.99
2023-03-16T13:21:11.886Z,99.99
2023-03-16T13:22:11.856Z,99.99
2023-03-16T13:23:11.835Z,99.99
2023-03-16T13:24:11.823Z,99.99
2023-03-16T13:25:11.798Z,99.99
2023-03-16T13:26:11.801Z,99.99
2023-03-16T13:27:11.762Z,99.99
2023-03-16T13:28:11.766Z,99.99
2023-03-16T13:29:11.715Z,99.62
2023-03-16T13:30:11.730Z,99.52
2023-03-16T13:31:11.680Z,98.90
2023-03-16T13:32:11.694Z,98.95
2023-03-16T13:33:11.651Z,99.99
2023-03-16T13:34:11.635Z,99.33
2023-03-16T13:35:11.638Z,99.33
2023-03-16T13:36:11.632Z,99.33
2023-03-16T13:37:11.597Z,99.04
2023-03-16T13:38:11.574Z,99.33
2023-03-16T13:39:11.557Z,99.14
2023-03-16T13:40:11.545Z,98.47
2023-03-16T13:41:11.539Z,98.85
2023-03-16T13:42:11.523Z,98.47
2023-03-16T13:43:11.503Z,97.99
2023-03-16T13:44:11.498Z,98.18
2023-03-16T13:45:11.458Z,98.47
2023-03-16T13:46:11.498Z,98.09
2023-03-16T13:47:11.433Z,98.57
2023-03-16T13:48:11.413Z,98.85
2023-03-16T13:49:11.391Z,97.80
2023-03-16T13:50:11.400Z,97.61
2023-03-16T13:51:11.386Z,98.90
2023-03-16T13:52:11.383Z,98.52
2023-03-16T13:53:11.347Z,97.08
2023-03-16T13:54:11.327Z,96.75
2023-03-16T13:55:11.300Z,95.94
2023-03-16T13:56:11.289Z,96.13
2023-03-16T13:57:11.297Z,96.89
2023-03-16T13:58:11.267Z,96.80
2023-03-16T13:59:11.251Z,96.89
2023-03-16T14:00:11.257Z,96.56
2023-03-16T14:01:11.231Z,96.66
2023-03-16T14:02:11.272Z,96.47
2023-03-16T14:03:11.199Z,96.70
2023-03-16T14:04:11.199Z,95.41
2023-03-16T14:05:11.152Z,95.41
2023-03-16T14:06:11.170Z,94.74
2023-03-16T14:07:11.155Z,92.78
2023-03-16T14:08:11.182Z,92.54
2023-03-16T14:09:11.097Z,92.59
2023-03-16T14:10:11.094Z,93.16
2023-03-16T14:11:11.090Z,94.07
2023-03-16T14:12:11.079Z,93.59
2023-03-16T14:13:11.073Z,93.07
2023-03-16T14:14:11.035Z,93.12
2023-03-16T14:15:11.014Z,92.78
2023-03-16T14:16:11.122Z,91.82
2023-03-16T14:17:11.002Z,92.44
2023-03-16T14:18:10.982Z,93.12
2023-03-16T14:19:10.959Z,92.40
2023-03-16T14:20:10.974Z,93.07
2023-03-16T14:21:10.932Z,93.12
2023-03-16T14:22:10.924Z,93.12
2023-03-16T14:23:10.935Z,92.58
2023-03-16T14:24:10.899Z,92.49
2023-03-16T14:25:10.877Z,91.63
2023-03-16T14:26:10.893Z,91.53
2023-03-16T14:27:10.869Z,90.91
2023-03-16T14:28:10.871Z,89.95
2023-03-16T14:29:10.821Z,89.62
2023-03-16T14:30:10.817Z,90.91
2023-03-16T14:31:10.879Z,90.77
2023-03-16T14:32:10.816Z,92.11
2023-03-16T14:33:10.814Z,93.02
2023-03-16T14:34:10.785Z,92.49
2023-03-16T14:35:10.746Z,92.30
2023-03-16T14:36:10.772Z,92.63
2023-03-16T14:37:10.752Z,92.25
2023-03-16T14:38:10.723Z,91.01
2023-03-16T14:39:10.712Z,90.29
2023-03-16T14:40:10.705Z,90.19
2023-03-16T14:41:10.666Z,89.62
2023-03-16T14:42:10.683Z,88.85
2023-03-16T14:43:10.670Z,89.62
2023-03-16T14:44:10.634Z,90.14
2023-03-16T14:45:10.617Z,89.66
2023-03-16T14:46:10.649Z,89.18
2023-03-16T14:47:10.585Z,89.28
2023-03-16T14:48:10.732Z,89.43
2023-03-16T14:49:10.593Z,89.72
2023-03-16T14:50:10.557Z,90.82
2023-03-16T14:51:10.536Z,91.30
2023-03-16T14:52:10.534Z,91.49
2023-03-16T14:53:10.520Z,91.63
2023-03-16T14:54:10.525Z,91.92
2023-03-16T14:55:10.485Z,90.53
2023-03-16T14:56:10.502Z,91.01
2023-03-16T14:57:10.460Z,91.82
2023-03-16T14:58:10.467Z,91.25
2023-03-16T14:59:10.437Z,90.58
2023-03-16T15:00:10.446Z,90.39
2023-03-16T15:01:10.444Z,90.53
2023-03-16T15:02:10.409Z,91.92
2023-03-16T15:03:10.472Z,92.21
2023-03-16T15:04:10.373Z,92.07
2023-03-16T15:05:10.356Z,92.74
2023-03-16T15:06:10.352Z,93.98
2023-03-16T15:07:10.330Z,94.51
2023-03-16T15:08:10.337Z,94.74
